Time;durP1;ratioP1;P1;durP2;ratioP2;P2;SDS_P1;SDS_P2;PMS_P1;PMS_P2;Temp;Humidity;BMP_temperature;BMP_pressure;BME280_temperature;BME280_humidity;BME280_pressure;Samples;Min_cycle;Max_cycle;Signal;HPM_P1;HPM_P2
2022/12/02 00:01:04;;;;;;;7.28;5.13;;;;;;;4.22;57.51;94132.94;5030017;28;20045;-79
2022/12/02 00:03:34;;;;;;;7.85;4.82;;;;;;;4.26;57.60;94131.34;5016525;28;20025;-76
2022/12/02 00:06:00;;;;;;;9.60;5.03;;;;;;;4.28;57.43;94128.47;5012793;28;20034;-77
2022/12/02 00:08:31;;;;;;;10.43;6.00;;;;;;;4.39;57.44;94145.06;5024666;28;20056;-76
2022/12/02 00:11:00;;;;;;;12.90;7.78;;;;;;;4.44;57.53;94152.97;5029145;28;20058;-78
2022/12/02 00:13:40;;;;;;;8.52;5.65;;;;;;;4.45;57.36;94136.09;5029505;28;20033;-76
2022/12/02 00:16:24;;;;;;;18.25;8.07;;;;;;;4.38;57.52;94125.03;5037097;28;20124;-77
2022/12/02 00:18:51;;;;;;;26.95;13.85;;;;;;;4.26;57.52;94110.28;5037659;28;20024;-76
2022/12/02 00:21:17;;;;;;;49.13;23.23;;;;;;;4.48;57.67;94143.47;5029366;28;20061;-77
2022/12/02 00:23:42;;;;;;;35.90;14.90;;;;;;;4.47;57.79;94136.63;5030502;28;20032;-78
2022/12/02 00:26:08;;;;;;;21.80;10.77;;;;;;;4.51;57.76;94154.25;5033130;28;20036;-76
2022/12/02 00:28:34;;;;;;;15.43;7.20;;;;;;;4.45;57.69;94129.00;5024162;28;20393;-76
2022/12/02 00:31:00;;;;;;;12.27;5.78;;;;;;;4.47;57.68;94133.97;5031491;28;20025;-77
2022/12/02 00:33:25;;;;;;;9.93;6.10;;;;;;;4.49;57.58;94129.25;5029980;28;20655;-77
2022/12/02 00:35:50;;;;;;;8.75;5.63;;;;;;;4.50;57.30;94136.84;5035530;28;20038;-77
2022/12/02 00:38:16;;;;;;;8.10;6.32;;;;;;;4.49;57.57;94129.25;5035436;28;20068;-77
2022/12/02 00:40:41;;;;;;;13.25;6.30;;;;;;;4.54;57.68;94137.13;5030958;28;20167;-78
2022/12/02 00:48:35;;;;;;;8.40;6.20;;;;;;;4.57;57.74;94133.94;5029571;28;20171;-77
2022/12/02 00:51:00;;;;;;;10.95;6.95;;;;;;;4.49;57.70;94118.72;5029286;28;20489;-78
2022/12/02 00:53:26;;;;;;;11.05;6.38;;;;;;;4.48;57.67;94132.94;5031800;28;20046;-76
2022/12/02 00:55:51;;;;;;;10.07;5.88;;;;;;;4.43;57.92;94122.41;5028259;28;20223;-76
2022/12/02 00:58:17;;;;;;;14.23;7.05;;;;;;;4.53;58.08;94140.81;5028259;28;20037;-76
2022/12/02 01:00:42;;;;;;;10.18;6.85;;;;;;;4.45;58.39;94107.94;5030156;28;20069;-77
2022/12/02 01:03:08;;;;;;;8.25;6.20;;;;;;;4.55;58.23;94121.03;5028099;28;20029;-76
2022/12/02 01:05:34;;;;;;;12.52;7.15;;;;;;;4.55;58.14;94122.91;5031906;28;20413;-76
2022/12/02 01:07:59;;;;;;;11.02;7.05;;;;;;;4.61;58.33;94133.16;5028625;28;20048;-76
2022/12/02 01:10:25;;;;;;;11.43;6.63;;;;;;;4.53;58.14;94109.22;5012743;28;20037;-77
2022/12/02 01:12:50;;;;;;;10.23;6.75;;;;;;;4.64;58.20;94127.38;5030598;28;20029;-76
2022/12/02 01:15:16;;;;;;;9.52;6.50;;;;;;;4.40;58.06;94083.44;5025779;28;20055;-77
2022/12/02 01:17:41;;;;;;;10.38;7.10;;;;;;;4.43;58.29;94115.28;5011914;28;20124;-78
2022/12/02 01:20:07;;;;;;;8.98;6.40;;;;;;;4.34;58.66;94102.94;5027739;28;20434;-76
2022/12/02 01:22:33;;;;;;;11.52;5.78;;;;;;;4.48;58.55;94128.44;5008335;28;20087;-76
2022/12/02 01:24:58;;;;;;;11.70;6.00;;;;;;;4.13;58.70;94063.44;5013695;28;20660;-78
2022/12/02 01:27:24;;;;;;;10.35;5.93;;;;;;;4.46;58.71;94108.69;5008832;28;20063;-76
2022/12/02 01:29:49;;;;;;;12.30;6.43;;;;;;;4.45;58.65;94104.50;5011646;28;20095;-76
2022/12/02 01:32:15;;;;;;;10.13;7.20;;;;;;;4.54;58.92;94118.69;5026922;28;20038;-78
2022/12/02 01:34:41;;;;;;;10.27;6.43;;;;;;;4.51;58.63;94116.56;5029236;28;20045;-76
2022/12/02 01:37:06;;;;;;;8.15;6.13;;;;;;;4.41;58.60;94100.78;5028094;28;20059;-76
2022/12/02 01:39:32;;;;;;;10.50;6.00;;;;;;;4.54;58.55;94123.97;5029328;28;20654;-75
2022/12/02 01:41:58;;;;;;;9.52;6.10;;;;;;;4.48;58.45;94111.84;5018122;28;20128;-75
2022/12/02 01:44:23;;;;;;;13.23;6.15;;;;;;;4.55;58.89;94123.69;5015880;28;20043;-76
2022/12/02 01:46:50;;;;;;;14.75;7.47;;;;;;;4.56;58.89;94125.25;5028276;28;20040;-76
2022/12/02 01:49:16;;;;;;;13.55;7.72;;;;;;;4.50;59.08;94115.03;5029716;28;20040;-75
2022/12/02 01:51:41;;;;;;;11.10;7.63;;;;;;;4.53;58.93;94123.19;5035295;28;20029;-77
2022/12/02 01:54:06;;;;;;;10.95;7.95;;;;;;;4.43;58.90;94101.34;5024516;28;20083;-76
2022/12/02 01:56:32;;;;;;;8.77;5.82;;;;;;;4.28;58.76;94081.84;5028197;28;20183;-77
2022/12/02 01:58:57;;;;;;;10.48;6.78;;;;;;;4.61;58.72;94132.34;5029690;28;20049;-75
2022/12/02 02:01:24;;;;;;;10.02;6.43;;;;;;;4.61;58.51;94133.16;5030994;28;20516;-76
2022/12/02 02:03:50;;;;;;;7.65;5.63;;;;;;;4.35;58.55;94086.88;5025524;28;20025;-75
2022/12/02 02:06:15;;;;;;;11.05;5.97;;;;;;;4.61;58.22;94141.06;5031116;28;20655;-76
2022/12/02 02:08:40;;;;;;;9.52;7.07;;;;;;;4.56;58.27;94129.75;5031306;28;20065;-76
2022/12/02 02:11:06;;;;;;;9.25;7.07;;;;;;;4.51;58.24;94121.84;5030625;28;20661;-76
2022/12/02 02:13:31;;;;;;;13.77;8.13;;;;;;;4.59;58.14;94137.91;5028114;28;20437;-76
2022/12/02 02:15:57;;;;;;;12.70;8.13;;;;;;;4.56;58.03;94135.00;5015456;28;20059;-75
2022/12/02 02:18:22;;;;;;;15.70;9.40;;;;;;;4.31;58.09;94096.34;5030289;28;20018;-78
2022/12/02 02:20:48;;;;;;;10.65;8.10;;;;;;;4.47;58.22;94124.22;5033432;28;20041;-76
2022/12/02 02:23:20;;;;;;;12.30;7.40;;;;;;;4.50;58.19;94136.09;5018793;28;20056;-76
2022/12/02 02:25:50;;;;;;;16.27;8.35;;;;;;;4.50;58.46;94141.38;5026314;28;20468;-77
2022/12/02 02:28:16;;;;;;;12.38;7.15;;;;;;;4.37;58.36;94113.72;5030793;28;20140;-76
2022/12/02 02:30:41;;;;;;;14.43;7.38;;;;;;;4.25;58.38;94098.19;5029849;28;20116;-77
2022/12/02 02:33:10;;;;;;;22.45;14.15;;;;;;;4.48;58.50;94132.94;5032045;28;20082;-76
2022/12/02 02:35:38;;;;;;;29.27;14.85;;;;;;;4.37;58.48;94126.09;5031597;28;20037;-76
2022/12/02 02:38:05;;;;;;;18.60;10.63;;;;;;;4.49;58.65;94148.47;5017135;28;20072;-78
2022/12/02 02:40:31;;;;;;;16.35;9.20;;;;;;;4.24;58.75;94120.31;5031318;28;20037;-77
2022/12/02 02:43:00;;;;;;;21.20;11.43;;;;;;;4.42;58.76;94147.16;5031834;28;20528;-75
2022/12/02 02:45:32;;;;;;;20.50;12.63;;;;;;;4.42;58.84;94142.69;5032742;28;20738;-75
2022/12/02 02:47:58;;;;;;;15.60;8.90;;;;;;;4.47;58.98;94157.69;5031758;28;20099;-75
2022/12/02 02:50:25;;;;;;;16.38;9.63;;;;;;;4.44;58.98;94147.69;5029360;28;20040;-76
2022/12/02 02:52:51;;;;;;;16.35;9.05;;;;;;;4.46;59.06;94156.09;5032475;28;20029;-76
2022/12/02 02:55:20;;;;;;;14.48;8.43;;;;;;;4.41;59.11;94140.31;5029059;28;20040;-75
2022/12/02 02:57:46;;;;;;;17.50;10.10;;;;;;;4.44;59.07;94143.22;5031990;28;20029;-75
2022/12/02 03:00:12;;;;;;;17.05;8.90;;;;;;;4.52;58.89;94155.84;5032202;28;20535;-76
2022/12/02 03:02:39;;;;;;;22.40;9.20;;;;;;;4.36;59.14;94129.78;5036628;28;20049;-77
2022/12/02 03:05:05;;;;;;;20.52;9.52;;;;;;;4.43;59.36;94138.19;5028829;28;20031;-76
2022/12/02 03:07:32;;;;;;;18.30;10.13;;;;;;;4.39;59.41;94131.91;5037455;28;20033;-77
2022/12/02 03:09:58;;;;;;;19.75;10.00;;;;;;;4.56;58.82;94156.06;5031096;28;20026;-75
2022/12/02 03:12:23;;;;;;;19.05;10.45;;;;;;;4.45;59.39;94133.47;5032246;28;20150;-75
2022/12/02 03:14:49;;;;;;;23.10;11.30;;;;;;;4.49;59.48;94140.56;5028383;28;20044;-76
2022/12/02 03:17:15;;;;;;;21.30;11.07;;;;;;;4.60;59.57;94155.28;5032562;28;20033;-75
2022/12/02 03:19:41;;;;;;;22.73;11.82;;;;;;;4.54;59.67;94148.47;5032085;28;20033;-76
2022/12/02 03:22:08;;;;;;;18.33;9.93;;;;;;;4.49;59.41;94139.78;5031373;28;21056;-77
2022/12/02 03:24:34;;;;;;;18.88;9.57;;;;;;;4.58;59.72;94153.97;5030666;28;20029;-76
2022/12/02 03:27:00;;;;;;;18.63;11.48;;;;;;;4.61;59.62;94163.97;5029304;28;20033;-76
2022/12/02 03:29:27;;;;;;;18.65;10.38;;;;;;;4.60;59.72;94168.44;5031521;28;20288;-76
2022/12/02 03:31:53;;;;;;;50.10;21.05;;;;;;;4.47;60.12;94147.94;5029585;28;20477;-76
2022/12/02 03:34:19;;;;;;;32.30;16.95;;;;;;;4.60;60.02;94170.31;5027705;28;20045;-75
2022/12/02 03:36:44;;;;;;;24.08;11.23;;;;;;;4.58;59.94;94169.78;5031242;28;20059;-77
2022/12/02 03:39:10;;;;;;;17.05;8.95;;;;;;;4.61;59.83;94166.59;5035399;28;21209;-76
2022/12/02 03:41:37;;;;;;;24.30;10.60;;;;;;;4.55;60.03;94171.09;5033073;28;20287;-77
2022/12/02 03:44:02;;;;;;;18.38;8.95;;;;;;;4.59;59.99;94164.25;5029473;28;20122;-76
2022/12/02 03:46:28;;;;;;;16.23;11.05;;;;;;;4.53;59.80;94152.16;5032023;28;20493;-75
2022/12/02 03:48:55;;;;;;;20.98;9.90;;;;;;;4.55;60.02;94159.78;5028551;28;20021;-76
2022/12/02 03:51:21;;;;;;;21.33;9.07;;;;;;;4.66;59.92;94171.88;5031807;28;20966;-77
2022/12/02 03:53:47;;;;;;;17.00;9.20;;;;;;;4.51;60.01;94153.44;5029055;28;20045;-77
2022/12/02 03:56:13;;;;;;;18.65;9.82;;;;;;;4.54;60.20;94156.38;5029427;28;20033;-75
2022/12/02 03:58:51;;;;;;;22.02;10.82;;;;;;;4.71;59.96;94179.75;5031012;28;20041;-75
2022/12/02 04:01:17;;;;;;;17.23;8.75;;;;;;;4.70;59.99;94172.91;5027807;28;20041;-75
2022/12/02 04:03:43;;;;;;;19.75;8.95;;;;;;;4.58;60.07;94160.03;5031253;28;20111;-77
2022/12/02 04:06:08;;;;;;;17.20;9.93;;;;;;;4.65;60.06;94167.66;5017376;28;20029;-75
2022/12/02 04:08:34;;;;;;;19.52;10.05;;;;;;;4.72;60.06;94178.72;5029466;28;20040;-76
2022/12/02 04:10:59;;;;;;;15.70;9.70;;;;;;;4.58;60.14;94151.34;5028123;28;20125;-76
2022/12/02 04:13:25;;;;;;;20.85;10.15;;;;;;;4.35;60.02;94112.41;5029982;28;20038;-75
2022/12/02 04:15:51;;;;;;;19.27;8.90;;;;;;;4.61;60.20;94167.41;5027695;28;20024;-75
2022/12/02 04:18:16;;;;;;;16.75;9.18;;;;;;;4.44;59.86;94155.59;5027879;28;20068;-75
2022/12/02 04:20:42;;;;;;;15.65;7.88;;;;;;;4.23;59.84;94121.34;5028002;28;20032;-76
2022/12/02 04:23:07;;;;;;;15.10;8.43;;;;;;;4.61;59.74;94174.50;5030681;28;20064;-76
2022/12/02 04:25:33;;;;;;;16.13;8.63;;;;;;;4.71;59.44;94192.94;5020475;28;20131;-76
2022/12/02 04:27:58;;;;;;;19.40;8.68;;;;;;;4.44;59.69;94158.22;5028381;28;20057;-75
2022/12/02 04:30:24;;;;;;;16.73;9.55;;;;;;;4.70;59.48;94183.44;5027556;28;20619;-75
2022/12/02 04:32:49;;;;;;;16.85;9.15;;;;;;;4.54;59.61;94158.22;5027400;28;20033;-75
2022/12/02 04:35:14;;;;;;;14.45;8.45;;;;;;;4.73;59.40;94192.69;5028255;28;20709;-76
2022/12/02 04:37:40;;;;;;;15.40;8.95;;;;;;;4.58;59.51;94175.84;5028643;28;20033;-75
2022/12/02 04:40:06;;;;;;;16.25;9.85;;;;;;;4.44;59.51;94159.00;5029751;28;20040;-76
2022/12/02 04:42:31;;;;;;;17.40;8.43;;;;;;;4.68;59.58;94185.56;5028181;28;20477;-77
2022/12/02 04:44:57;;;;;;;12.93;7.60;;;;;;;4.70;59.36;94192.13;5015836;28;20120;-76
2022/12/02 04:47:22;;;;;;;18.50;8.25;;;;;;;4.64;59.60;94185.31;5026133;28;20552;-75
2022/12/02 04:49:48;;;;;;;20.10;9.27;;;;;;;4.56;59.51;94185.84;5030940;28;20041;-75
2022/12/02 04:52:14;;;;;;;16.48;8.60;;;;;;;4.50;59.37;94167.69;5028725;28;20409;-75
2022/12/02 04:54:39;;;;;;;17.85;8.90;;;;;;;4.51;59.43;94167.41;5031263;28;20029;-75
2022/12/02 04:57:05;;;;;;;18.75;9.13;;;;;;;4.46;59.76;94180.59;5027644;28;20044;-75
2022/12/02 04:59:30;;;;;;;15.10;8.63;;;;;;;4.18;59.55;94131.88;5028992;28;20315;-76
2022/12/02 05:01:56;;;;;;;19.73;9.77;;;;;;;4.42;59.76;94176.13;5034562;28;20125;-76
2022/12/02 05:04:21;;;;;;;18.67;9.32;;;;;;;4.59;60.04;94197.72;5027587;28;20592;-77
2022/12/02 05:06:46;;;;;;;20.60;10.00;;;;;;;4.55;60.00;94207.22;5032631;28;20156;-76
2022/12/02 05:09:12;;;;;;;20.55;10.10;;;;;;;4.58;60.13;94206.66;5030026;28;20042;-77
2022/12/02 05:11:37;;;;;;;19.83;9.82;;;;;;;4.46;60.06;94192.97;5033229;28;20042;-76
2022/12/02 05:14:03;;;;;;;16.25;9.10;;;;;;;4.57;60.33;94205.88;5026998;28;20483;-78
2022/12/02 05:16:28;;;;;;;21.77;9.80;;;;;;;4.40;60.34;94184.31;5031335;28;20044;-75
2022/12/02 05:18:53;;;;;;;23.98;9.93;;;;;;;4.40;60.30;94189.56;5028965;28;20079;-77
2022/12/02 05:21:19;;;;;;;19.10;9.95;;;;;;;4.40;60.51;94194.84;5033647;28;20134;-76
2022/12/02 05:23:44;;;;;;;17.35;9.30;;;;;;;4.43;60.63;94198.78;5031351;28;20033;-78
2022/12/02 05:26:10;;;;;;;18.38;9.27;;;;;;;4.46;60.75;94200.88;5031355;28;20680;-75
2022/12/02 05:28:36;;;;;;;15.75;8.10;;;;;;;4.38;60.60;94190.88;5014825;28;20476;-76
2022/12/02 05:31:01;;;;;;;15.73;9.20;;;;;;;4.54;60.58;94209.03;5032273;28;20476;-77
2022/12/02 05:33:26;;;;;;;16.40;10.02;;;;;;;4.47;60.76;94215.63;5026646;28;20304;-76
2022/12/02 05:35:52;;;;;;;14.30;7.90;;;;;;;4.23;60.75;94179.28;5031359;28;20040;-77
2022/12/02 05:38:17;;;;;;;16.17;7.30;;;;;;;4.17;60.72;94169.78;5032005;28;20476;-75
2022/12/02 05:40:43;;;;;;;12.82;7.50;;;;;;;4.49;60.63;94216.16;5031584;28;20037;-78
2022/12/02 05:43:19;;;;;;;14.60;7.22;;;;;;;4.47;60.87;94220.91;5031710;28;20055;-76
2022/12/02 05:45:45;;;;;;;12.52;7.57;;;;;;;4.48;60.85;94218.00;5029172;28;20065;-76
2022/12/02 05:48:13;;;;;;;14.93;7.35;;;;;;;4.47;60.61;94226.16;5031262;28;20125;-76
2022/12/02 05:50:39;;;;;;;14.57;8.00;;;;;;;4.28;60.79;94196.91;5020226;28;20049;-76
2022/12/02 05:53:06;;;;;;;11.65;7.78;;;;;;;4.49;60.52;94222.22;5019981;28;20037;-76
2022/12/02 05:55:33;;;;;;;14.98;7.88;;;;;;;4.51;60.64;94229.84;5027488;28;20704;-76
2022/12/02 05:58:01;;;;;;;15.77;8.25;;;;;;;4.52;60.71;94231.44;5027602;28;20110;-75
2022/12/02 06:00:27;;;;;;;19.65;9.95;;;;;;;4.49;60.58;94219.59;5029307;28;20036;-75
2022/12/02 06:02:58;;;;;;;16.35;7.40;;;;;;;4.56;60.42;94235.09;5023694;28;20041;-76
2022/12/02 06:05:38;;;;;;;15.93;7.43;;;;;;;4.44;60.16;94216.97;5008974;28;20038;-75
2022/12/02 06:08:17;;;;;;;17.63;7.80;;;;;;;4.40;60.08;94217.75;5017386;28;20087;-76
2022/12/02 06:10:47;;;;;;;15.00;7.95;;;;;;;4.38;60.34;94244.34;5020851;28;20052;-76
2022/12/02 06:13:17;;;;;;;14.43;7.78;;;;;;;4.40;60.48;94249.34;5037248;28;20060;-75
2022/12/02 06:15:43;;;;;;;15.10;8.15;;;;;;;4.15;60.96;94224.56;5038218;28;20515;-76
2022/12/02 06:18:16;;;;;;;21.50;9.73;;;;;;;3.98;61.45;94199.53;5036028;28;20056;-76
2022/12/02 06:20:43;;;;;;;14.30;8.88;;;;;;;4.34;61.30;94258.31;5037966;28;20962;-77
2022/12/02 06:23:16;;;;;;;15.52;8.57;;;;;;;4.37;61.04;94258.56;5043030;28;20276;-75
2022/12/02 06:25:43;;;;;;;22.52;9.43;;;;;;;4.24;61.13;94228.25;5029911;28;20045;-78
2022/12/02 06:28:28;;;;;;;19.55;10.90;;;;;;;4.45;60.94;94254.63;5043095;28;20035;-77
2022/12/02 06:31:09;;;;;;;18.30;9.18;;;;;;;4.48;60.87;94262.78;5041709;28;20037;-76
2022/12/02 06:33:36;;;;;;;16.38;8.98;;;;;;;4.34;61.37;94256.47;5041487;28;20035;-75
2022/12/02 06:36:08;;;;;;;23.15;10.68;;;;;;;3.97;61.55;94190.06;5037577;28;20637;-76
2022/12/02 06:38:41;;;;;;;16.95;9.98;;;;;;;4.49;61.59;94260.94;5036067;28;20037;-76
2022/12/02 06:41:15;;;;;;;14.63;9.05;;;;;;;4.23;61.35;94237.19;5038052;28;20041;-76
2022/12/02 06:43:41;;;;;;;14.77;8.40;;;;;;;4.35;61.10;94267.78;5024445;28;20084;-76
2022/12/02 06:46:19;;;;;;;17.58;8.40;;;;;;;4.46;60.94;94274.63;5043939;28;20043;-76
2022/12/02 06:48:44;;;;;;;13.60;8.43;;;;;;;4.49;61.29;94271.47;5041047;28;20151;-76
2022/12/02 06:51:17;;;;;;;13.65;8.45;;;;;;;4.50;61.45;94267.78;5045114;28;20635;-77
2022/12/02 06:53:44;;;;;;;18.02;9.07;;;;;;;4.28;61.39;94234.56;5016787;28;20037;-76
2022/12/02 06:56:12;;;;;;;16.70;10.50;;;;;;;4.55;61.49;94271.19;5030398;28;20056;-78
2022/12/02 06:58:46;;;;;;;16.08;9.70;;;;;;;4.57;61.75;94273.56;5037473;28;20038;-77
2022/12/02 07:01:19;;;;;;;18.05;10.73;;;;;;;4.54;61.44;94274.91;5037661;28;20053;-77
2022/12/02 07:04:08;;;;;;;23.17;10.73;;;;;;;4.37;61.54;94236.69;5039883;28;20021;-77
2022/12/02 07:06:38;;;;;;;19.88;10.50;;;;;;;4.42;61.67;94248.03;5042777;28;20277;-77
2022/12/02 07:09:16;;;;;;;16.65;9.68;;;;;;;4.47;61.75;94270.94;5019882;28;20044;-77
2022/12/02 07:11:50;;;;;;;18.17;10.82;;;;;;;4.47;61.93;94273.56;5046410;28;20135;-76
2022/12/02 07:14:34;;;;;;;18.60;10.98;;;;;;;4.49;61.86;94272.28;5020211;28;20444;-76
2022/12/02 07:17:05;;;;;;;22.77;11.20;;;;;;;4.41;61.96;94279.88;5037291;28;20037;-78
2022/12/02 07:19:40;;;;;;;22.65;10.93;;;;;;;4.39;61.77;94271.47;5041720;28;20040;-76
2022/12/02 07:22:13;;;;;;;;;;;;;;;4.39;61.56;94277.53;5032445;28;20464;-77
2022/12/02 07:24:40;;;;;;;17.13;9.35;;;;;;;4.44;61.65;94274.09;5029722;28;19909;-76
2022/12/02 07:27:19;;;;;;;20.50;11.68;;;;;;;4.27;61.85;94254.03;5044547;28;20099;-76
2022/12/02 07:29:45;;;;;;;22.40;11.90;;;;;;;4.22;62.13;94267.22;5034532;28;20135;-77
2022/12/02 07:32:10;;;;;;;20.58;11.90;;;;;;;3.95;62.35;94216.66;5040247;28;20043;-76
2022/12/02 07:34:35;;;;;;;23.60;11.57;;;;;;;4.32;62.62;94260.38;5041647;28;20045;-75
2022/12/02 07:37:01;;;;;;;22.30;12.48;;;;;;;4.35;62.69;94287.00;5042861;28;20033;-77
2022/12/02 07:39:26;;;;;;;23.95;11.65;;;;;;;4.41;62.77;94293.03;5041348;28;20083;-76
2022/12/02 07:41:52;;;;;;;20.40;12.07;;;;;;;4.44;62.49;94295.19;5030719;28;20045;-76
2022/12/02 07:44:19;;;;;;;20.27;10.98;;;;;;;4.27;62.67;94290.91;5025238;28;20037;-76
2022/12/02 07:46:45;;;;;;;21.17;11.35;;;;;;;4.18;62.89;94281.16;5036317;28;20502;-77
2022/12/02 07:49:10;;;;;;;17.85;10.80;;;;;;;3.81;63.61;94270.84;5029895;28;20369;-77
2022/12/02 07:51:36;;;;;;;23.40;12.10;;;;;;;3.91;64.43;94296.38;5047664;28;20276;-77
2022/12/02 07:54:01;;;;;;;20.92;10.43;;;;;;;4.00;64.75;94298.25;5033018;28;20063;-77
2022/12/02 07:56:26;;;;;;;19.10;10.52;;;;;;;3.76;64.48;94262.94;5016594;28;20042;-77
2022/12/02 07:58:52;;;;;;;18.88;9.80;;;;;;;3.90;64.43;94277.16;5022225;28;20037;-74
2022/12/02 08:01:17;;;;;;;22.80;11.55;;;;;;;3.99;64.26;94262.44;5040863;28;20601;-77
2022/12/02 08:03:43;;;;;;;25.85;12.50;;;;;;;4.11;63.87;94285.91;5042407;28;20128;-77
2022/12/02 08:06:08;;;;;;;23.73;12.38;;;;;;;4.00;64.28;94253.50;5042273;28;20041;-76
2022/12/02 08:08:33;;;;;;;24.02;11.90;;;;;;;4.46;64.02;94303.59;5037855;28;20550;-77
2022/12/02 08:10:59;;;;;;;21.27;11.75;;;;;;;4.52;63.92;94303.34;5029091;28;20041;-77
2022/12/02 08:13:24;;;;;;;20.58;12.80;;;;;;;4.40;63.74;94283.59;5036890;28;20120;-78
2022/12/02 08:15:50;;;;;;;25.98;13.10;;;;;;;4.36;63.72;94282.50;5036889;28;20021;-77
2022/12/02 08:18:15;;;;;;;23.73;12.30;;;;;;;4.65;63.32;94313.34;5037795;28;20041;-77
2022/12/02 08:20:40;;;;;;;25.00;13.15;;;;;;;4.46;63.15;94283.31;5033846;28;20947;-76
2022/12/02 08:23:06;;;;;;;25.92;14.02;;;;;;;4.45;63.58;94294.13;5022664;28;20489;-77
2022/12/02 08:25:31;;;;;;;26.05;13.73;;;;;;;4.39;63.79;94310.97;5015375;28;20451;-76
2022/12/02 08:27:57;;;;;;;24.60;13.27;;;;;;;4.46;63.49;94293.06;5025514;28;20175;-77
2022/12/02 08:30:22;;;;;;;23.05;12.73;;;;;;;4.62;63.30;94305.97;5030614;28;20219;-77
2022/12/02 08:32:47;;;;;;;28.48;14.05;;;;;;;4.76;63.11;94308.88;5026995;28;20040;-78
2022/12/02 08:35:13;;;;;;;20.15;13.07;;;;;;;4.82;62.81;94315.72;5021566;28;20059;-77
2022/12/02 08:37:38;;;;;;;19.52;11.60;;;;;;;4.88;62.49;94319.16;5014945;28;20033;-76
2022/12/02 08:40:04;;;;;;;18.65;11.95;;;;;;;4.64;61.80;94276.75;5010814;28;20029;-76
2022/12/02 08:42:30;;;;;;;16.77;11.63;;;;;;;4.75;60.99;94291.47;5025787;28;20089;-76
2022/12/02 08:44:55;;;;;;;33.00;16.92;;;;;;;4.72;60.18;94305.19;5026043;28;20052;-77
2022/12/02 08:47:21;;;;;;;19.92;13.23;;;;;;;4.90;60.32;94320.44;5027259;28;20045;-76
2022/12/02 08:49:46;;;;;;;26.52;14.18;;;;;;;4.75;60.60;94291.47;5026079;28;20114;-77
2022/12/02 08:52:11;;;;;;;21.73;13.98;;;;;;;4.94;60.65;94331.28;5016809;28;20041;-76
2022/12/02 08:54:39;;;;;;;26.95;15.18;;;;;;;4.66;60.39;94280.69;5031975;28;20147;-75
2022/12/02 08:57:05;;;;;;;23.02;14.15;;;;;;;5.00;60.66;94328.34;5009399;28;20041;-75
2022/12/02 08:59:30;;;;;;;30.02;15.15;;;;;;;5.08;60.21;94327.84;5027174;28;20084;-76
2022/12/02 09:01:55;;;;;;;25.60;15.07;;;;;;;4.97;60.46;94307.81;5027414;28;20049;-74
2022/12/02 09:04:21;;;;;;;25.73;15.98;;;;;;;5.12;60.20;94328.88;5030829;28;20100;-76
2022/12/02 09:06:46;;;;;;;29.70;15.15;;;;;;;4.96;60.06;94314.13;5027931;28;20036;-77
2022/12/02 09:09:12;;;;;;;30.35;14.35;;;;;;;4.84;59.84;94300.44;5012445;28;20378;-76
2022/12/02 09:11:37;;;;;;;22.95;13.75;;;;;;;4.86;60.00;94298.31;5017088;28;20042;-75
2022/12/02 09:14:03;;;;;;;28.30;14.50;;;;;;;4.97;60.03;94320.19;5028935;28;20051;-77
2022/12/02 09:16:28;;;;;;;31.40;19.17;;;;;;;5.01;60.31;94314.13;5024519;28;20033;-76
2022/12/02 09:18:57;;;;;;;29.60;15.13;;;;;;;5.02;60.39;94309.66;5028254;28;20022;-77
2022/12/02 09:21:22;;;;;;;28.02;15.75;;;;;;;4.94;60.55;94294.38;5033506;28;20083;-77
2022/12/02 09:23:48;;;;;;;33.80;15.25;;;;;;;5.00;60.33;94312.53;5034648;28;20037;-74
2022/12/02 09:26:14;;;;;;;30.20;15.38;;;;;;;4.82;60.72;94294.63;5031622;28;20045;-75
2022/12/02 09:28:39;;;;;;;27.50;15.82;;;;;;;5.11;60.54;94311.47;5032804;28;20083;-76
2022/12/02 09:31:04;;;;;;;29.58;16.38;;;;;;;5.17;60.43;94303.56;5027531;28;20542;-76
2022/12/02 09:33:30;;;;;;;34.58;16.00;;;;;;;4.97;61.06;94313.09;5027668;28;20415;-75
2022/12/02 09:35:55;;;;;;;39.65;18.65;;;;;;;5.02;60.76;94293.81;5026811;28;20681;-76
2022/12/02 09:38:20;;;;;;;35.05;17.52;;;;;;;5.04;60.48;94289.84;5024989;28;20884;-76
2022/12/02 09:40:46;;;;;;;38.30;17.55;;;;;;;5.26;60.52;94308.03;5028590;28;20139;-76
2022/12/02 09:43:12;;;;;;;38.17;17.83;;;;;;;5.07;60.59;94288.56;5022181;28;20103;-75
2022/12/02 09:45:38;;;;;;;32.80;19.15;;;;;;;5.29;60.68;94306.69;5033894;28;20082;-76
2022/12/02 09:48:03;;;;;;;37.53;19.80;;;;;;;5.40;60.60;94309.03;5035351;28;20029;-76
2022/12/02 09:50:28;;;;;;;33.35;18.45;;;;;;;5.11;60.34;94285.09;5017965;28;20162;-76
2022/12/02 09:53:02;;;;;;;37.75;19.10;;;;;;;5.16;60.35;94283.50;5034903;28;20065;-76
2022/12/02 09:55:27;;;;;;;36.20;18.77;;;;;;;5.05;60.60;94259.00;5029684;28;20113;-76
2022/12/02 09:58:11;;;;;;;31.15;16.67;;;;;;;5.28;60.91;94284.03;5038498;28;20104;-74
2022/12/02 10:00:36;;;;;;;35.67;17.27;;;;;;;5.28;61.14;94284.03;5028389;28;20473;-75
2022/12/02 10:03:04;;;;;;;43.28;20.00;;;;;;;5.29;61.46;94275.03;5036741;28;21117;-76
2022/12/02 10:05:32;;;;;;;35.78;18.58;;;;;;;5.49;61.45;94293.44;5038285;28;20057;-76
2022/12/02 10:07:59;;;;;;;36.17;19.85;;;;;;;5.53;61.43;94297.09;5036673;28;20083;-76
2022/12/02 10:10:34;;;;;;;43.78;20.73;;;;;;;5.22;61.30;94279.81;5033610;28;20045;-76
2022/12/02 10:13:01;;;;;;;39.88;20.48;;;;;;;5.21;61.30;94254.50;5039349;28;20040;-76
2022/12/02 10:15:28;;;;;;;41.63;20.38;;;;;;;5.46;61.53;94283.44;5038186;28;20017;-75
2022/12/02 10:17:54;;;;;;;50.85;24.95;;;;;;;5.53;61.45;94289.19;5036867;28;20040;-76
2022/12/02 10:20:26;;;;;;;41.00;20.48;;;;;;;5.45;61.51;94272.09;5036604;28;20033;-75
2022/12/02 10:23:21;;;;;;;43.67;21.65;;;;;;;5.62;62.08;94290.25;5037123;28;20555;-76
2022/12/02 10:26:08;;;;;;;40.83;21.85;;;;;;;5.56;61.87;94267.56;5022366;28;20159;-75
2022/12/02 10:28:35;;;;;;;50.95;22.67;;;;;;;5.47;61.56;94282.38;5019431;28;20380;-75
2022/12/02 10:31:13;;;;;;;38.42;21.58;;;;;;;5.18;61.23;94226.03;5037213;28;20051;-76
2022/12/02 10:34:00;;;;;;;47.00;22.25;;;;;;;5.58;61.40;94289.97;5037916;28;20045;-75
2022/12/02 10:36:55;;;;;;;43.35;21.48;;;;;;;5.57;61.52;94292.91;5033684;28;20191;-75
2022/12/02 10:39:29;;;;;;;47.53;23.90;;;;;;;5.54;61.81;94288.13;5020297;28;20069;-75
2022/12/02 10:42:06;;;;;;;55.90;25.97;;;;;;;5.62;61.91;94295.53;5037951;28;20052;-76
2022/12/02 10:44:37;;;;;;;42.90;22.50;;;;;;;5.38;61.74;94268.94;5038336;28;20034;-76
2022/12/02 10:47:10;;;;;;;47.80;23.65;;;;;;;5.62;62.13;94292.88;5036327;28;20069;-77
2022/12/02 10:49:36;;;;;;;44.33;23.67;;;;;;;5.47;61.82;94246.25;5036866;28;20056;-77
2022/12/02 10:52:09;;;;;;;45.53;21.25;;;;;;;5.67;62.09;94281.50;5025773;28;20032;-77
2022/12/02 10:54:38;;;;;;;41.75;21.08;;;;;;;5.64;61.90;94267.00;5033698;28;20100;-75
2022/12/02 10:57:05;;;;;;;49.42;23.90;;;;;;;5.81;61.79;94278.00;5033075;28;20616;-76
2022/12/02 10:59:32;;;;;;;50.33;27.60;;;;;;;5.61;61.85;94243.00;5035996;28;20041;-75
2022/12/02 11:01:58;;;;;;;60.83;27.55;;;;;;;5.89;61.80;94280.06;5038998;28;20087;-75
2022/12/02 11:04:24;;;;;;;44.03;23.50;;;;;;;5.81;61.72;94264.03;5036251;28;20043;-77
2022/12/02 11:06:52;;;;;;;52.08;25.00;;;;;;;5.95;61.41;94284.28;5036510;28;20104;-76
2022/12/02 11:09:23;;;;;;;47.92;23.05;;;;;;;5.85;61.57;94286.97;5031870;28;20041;-75
2022/12/02 11:11:49;;;;;;;61.70;29.90;;;;;;;5.45;62.14;94227.25;5015514;28;20075;-75
2022/12/02 11:14:36;;;;;;;43.42;24.52;;;;;;;5.92;62.24;94290.09;5034017;28;20029;-76
2022/12/02 11:17:10;;;;;;;46.78;22.55;;;;;;;5.75;61.97;94262.47;5028637;28;20051;-76
2022/12/02 11:19:35;;;;;;;45.80;25.10;;;;;;;5.93;61.78;94291.66;5023500;28;20034;-76
2022/12/02 11:22:01;;;;;;;47.13;24.42;;;;;;;5.91;61.79;94299.09;5029262;28;20037;-77
2022/12/02 11:24:27;;;;;;;52.80;24.67;;;;;;;5.97;61.71;94292.69;5035017;28;20029;-76
2022/12/02 11:26:58;;;;;;;49.92;27.27;;;;;;;5.90;61.35;94294.84;5035150;28;20040;-76
2022/12/02 11:29:25;;;;;;;45.33;23.58;;;;;;;5.84;61.63;94281.94;5033568;28;20370;-76
2022/12/02 11:32:21;;;;;;;114.32;52.63;;;;;;;5.98;61.51;94298.78;5034787;28;20047;-76
2022/12/02 11:34:50;;;;;;;58.22;29.15;;;;;;;6.00;61.45;94307.22;5032181;28;20037;-75
2022/12/02 11:37:34;;;;;;;43.95;24.25;;;;;;;5.90;61.27;94307.28;5036072;28;20045;-77